Time;durP1;ratioP1;P1;durP2;ratioP2;P2;SDS_P1;SDS_P2;PMS_P1;PMS_P2;Temp;Humidity;BMP_temperature;BMP_pressure;BME280_temperature;BME280_humidity;BME280_pressure;Samples;Min_cycle;Max_cycle;Signal;HPM_P1;HPM_P2
2021/06/10 00:01:42;;;;;;;;;;;;;;;15.74;83.08;102051.13;5045685;28;19921;-79
2021/06/10 00:04:08;;;;;;;;;;;;;;;15.75;82.91;102052.00;5040031;28;19917;-81
2021/06/10 00:06:33;;;;;;;;;;;;;;;15.74;83.37;102045.03;5035312;28;19940;-79
2021/06/10 00:08:59;;;;;;;;;;;;;;;15.73;83.07;102049.50;5031926;28;19964;-78
2021/06/10 00:11:24;;;;;;;;;;;;;;;15.71;84.24;102048.78;5030872;28;19912;-79
2021/06/10 00:13:50;;;;;;;;;;;;;;;15.76;86.82;102048.34;5034515;28;19920;-77
2021/06/10 00:16:16;;;;;;;;;;;;;;;15.68;86.44;102045.59;5052875;28;19920;-82
2021/06/10 00:18:42;;;;;;;;;;;;;;;15.62;86.69;102041.72;5055677;28;19912;-79
2021/06/10 00:21:08;;;;;;;;;;;;;;;15.60;87.20;102043.69;5055903;28;20496;-77
2021/06/10 00:23:33;;;;;;;;;;;;;;;15.55;87.54;102041.47;5055782;28;20363;-80
2021/06/10 00:26:16;;;;;;;;;;;;;;;15.50;87.63;102045.53;5054888;28;19935;-80
2021/06/10 00:29:05;;;;;;;;;;;;;;;15.44;88.31;102038.19;5034714;28;19916;-79
2021/06/10 00:31:31;;;;;;;;;;;;;;;15.36;89.02;102041.59;5039176;28;20405;-77
2021/06/10 00:34:02;;;;;;;;;;;;;;;15.28;89.25;102038.84;5045061;28;20283;-80
2021/06/10 00:36:28;;;;;;;;;;;;;;;15.22;89.73;102036.75;5044352;28;19919;-79
2021/06/10 00:38:53;;;;;;;;;;;;;;;15.21;89.94;102037.75;5045938;28;20007;-77
2021/06/10 00:41:19;;;;;;;;;;;;;;;15.18;89.79;102036.22;5023592;28;20008;-80
2021/06/10 00:43:45;;;;;;;;;;;;;;;15.15;89.45;102023.31;5048174;28;19951;-79
2021/06/10 00:46:10;;;;;;;;;;;;;;;15.10;89.44;102029.00;5020431;28;19952;-80
2021/06/10 00:48:37;;;;;;;;;;;;;;;15.04;89.82;102026.13;5013883;28;19939;-78
2021/06/10 00:51:03;;;;;;;;;;;;;;;14.98;90.05;102028.38;5040142;28;19924;-78
2021/06/10 00:53:29;;;;;;;;;;;;;;;14.96;90.03;102032.16;5032111;28;19960;-79
2021/06/10 00:55:56;;;;;;;;;;;;;;;14.90;90.40;102022.97;5041110;28;19964;-80
2021/06/10 00:58:22;;;;;;;;;;;;;;;14.83;90.86;102024.53;5040872;28;20007;-77
2021/06/10 01:00:48;;;;;;;;;;;;;;;14.81;91.19;102021.19;5047957;28;20467;-80
2021/06/10 01:03:14;;;;;;;;;;;;;;;14.73;91.30;102010.50;5033065;28;19913;-78
2021/06/10 01:05:40;;;;;;;;;;;;;;;14.68;92.12;102016.22;5050003;28;19917;-78
2021/06/10 01:08:08;;;;;;;;;;;;;;;14.63;92.26;102018.44;5033238;28;19962;-79
2021/06/10 01:10:40;;;;;;;;;;;;;;;14.60;91.91;102010.81;5026352;28;20428;-79
2021/06/10 01:13:08;;;;;;;;;;;;;;;14.55;91.50;102011.19;5049132;28;19970;-79
2021/06/10 01:15:38;;;;;;;;;;;;;;;14.53;91.63;102017.63;5048467;28;19916;-78
2021/06/10 01:18:04;;;;;;;;;;;;;;;14.43;91.29;102014.13;5050177;28;19978;-77
2021/06/10 01:20:30;;;;;;;;;;;;;;;14.39;90.55;102011.78;5039510;28;19916;-79
2021/06/10 01:22:56;;;;;;;;;;;;;;;14.37;90.39;102012.88;5049732;28;19947;-78
2021/06/10 01:25:34;;;;;;;;;;;;;;;14.34;90.44;102013.19;5050706;28;20724;-77
2021/06/10 01:28:03;;;;;;;;;;;;;;;14.27;91.64;102006.81;5008675;28;19913;-77
2021/06/10 01:30:39;;;;;;;;;;;;;;;14.22;91.60;102012.47;5025951;28;20063;-78
2021/06/10 01:33:31;;;;;;;;;;;;;;;14.25;92.36;102009.56;5047644;28;20609;-76
2021/06/10 01:35:58;;;;;;;;;;;;;;;14.23;93.70;102006.25;5027305;28;19923;-77
2021/06/10 01:38:24;;;;;;;;;;;;;;;14.16;93.89;102010.41;5037925;28;20447;-76
2021/06/10 01:40:50;;;;;;;;;;;;;;;14.14;94.72;102004.44;5042644;28;19924;-80
2021/06/10 01:43:17;;;;;;;;;;;;;;;14.15;94.88;102000.84;5038684;28;19921;-77
2021/06/10 01:45:43;;;;;;;;;;;;;;;14.17;94.87;102001.53;5048293;28;19920;-79
2021/06/10 01:48:09;;;;;;;;;;;;;;;14.15;95.04;102003.47;5041485;28;19916;-79
2021/06/10 01:50:35;;;;;;;;;;;;;;;14.14;94.48;102001.81;5048072;28;19917;-80
2021/06/10 01:53:01;;;;;;;;;;;;;;;14.08;94.43;101994.44;5048402;28;19924;-80
2021/06/10 01:55:28;;;;;;;;;;;;;;;14.02;94.61;101996.66;5050290;28;19913;-82
2021/06/10 01:57:55;;;;;;;;;;;;;;;14.02;94.54;101994.03;5032232;28;19976;-79
2021/06/10 02:00:20;;;;;;;;;;;;;;;13.99;94.13;101993.47;5030181;28;19931;-79
2021/06/10 02:02:47;;;;;;;;;;;;;;;13.93;94.30;101986.94;5015942;28;19920;-79
2021/06/10 02:05:13;;;;;;;;;;;;;;;13.96;93.71;101994.59;5032054;28;20302;-80
2021/06/10 02:07:39;;;;;;;;;;;;;;;13.95;93.56;101982.34;5041681;28;19916;-78
2021/06/10 02:10:06;;;;;;;;;;;;;;;13.90;93.05;101986.38;5013900;28;20001;-77
2021/06/10 02:12:32;;;;;;;;;;;;;;;13.88;92.42;101980.41;5040761;28;19927;-80
2021/06/10 02:15:00;;;;;;;;;;;;;;;13.83;92.01;101979.03;5048726;28;19912;-80
2021/06/10 02:17:25;;;;;;;;;;;;;;;13.76;91.68;101977.06;5047564;28;19936;-79
2021/06/10 02:19:50;;;;;;;;;;;;;;;13.73;91.50;101977.34;5046351;28;19912;-78
2021/06/10 02:22:17;;;;;;;;;;;;;;;13.74;91.45;101973.75;5035093;28;20606;-79
2021/06/10 02:24:42;;;;;;;;;;;;;;;13.74;91.24;101974.56;5040669;28;19913;-79
2021/06/10 02:27:07;;;;;;;;;;;;;;;13.70;91.10;101977.63;5044367;28;19923;-79
2021/06/10 02:29:33;;;;;;;;;;;;;;;13.68;90.95;101980.41;5046511;28;19916;-78
2021/06/10 02:31:58;;;;;;;;;;;;;;;13.65;91.10;101985.94;5029758;28;19924;-77
2021/06/10 02:34:24;;;;;;;;;;;;;;;13.57;91.80;101983.16;5027179;28;19924;-81
2021/06/10 02:36:49;;;;;;;;;;;;;;;13.48;91.11;101979.50;5032954;28;19923;-78
2021/06/10 02:39:16;;;;;;;;;;;;;;;13.46;91.51;101983.28;5019191;28;20029;-78
2021/06/10 02:41:45;;;;;;;;;;;;;;;13.42;91.45;101987.97;5033203;28;20501;-79
2021/06/10 02:44:11;;;;;;;;;;;;;;;13.34;90.90;101985.19;5029629;28;19917;-79
2021/06/10 02:46:36;;;;;;;;;;;;;;;13.36;90.97;101988.53;5045032;28;19924;-78
2021/06/10 02:49:03;;;;;;;;;;;;;;;13.36;91.04;101985.88;5030811;28;19916;-81
2021/06/10 02:51:29;;;;;;;;;;;;;;;13.33;90.90;101980.88;5032867;28;19920;-81
2021/06/10 02:53:55;;;;;;;;;;;;;;;13.27;90.65;101976.13;5037047;28;19924;-78
2021/06/10 02:56:21;;;;;;;;;;;;;;;13.28;91.05;101972.50;5048303;28;19912;-80
2021/06/10 02:58:47;;;;;;;;;;;;;;;13.23;90.99;101968.47;5048096;28;19962;-80
2021/06/10 03:01:13;;;;;;;;;;;;;;;13.20;91.20;101978.44;5040182;28;19943;-79
2021/06/10 03:03:41;;;;;;;;;;;;;;;13.18;91.16;101965.38;5040235;28;20394;-79
2021/06/10 03:06:06;;;;;;;;;;;;;;;13.21;91.23;101975.69;5047612;28;19921;-79
2021/06/10 03:08:32;;;;;;;;;;;;;;;13.24;91.44;101977.19;5042963;28;19917;-79
2021/06/10 03:10:59;;;;;;;;;;;;;;;13.26;91.34;101975.28;5044113;28;19995;-79
2021/06/10 03:13:25;;;;;;;;;;;;;;;13.24;91.33;101975.41;5052525;28;20049;-80
2021/06/10 03:15:51;;;;;;;;;;;;;;;13.22;92.42;101976.50;5041702;28;20448;-79
2021/06/10 03:18:17;;;;;;;;;;;;;;;13.21;93.17;101982.75;5040573;28;19962;-79
2021/06/10 03:20:43;;;;;;;;;;;;;;;13.23;93.70;101983.44;5045304;28;19920;-77
2021/06/10 03:23:09;;;;;;;;;;;;;;;13.20;94.17;101981.94;5051681;28;20389;-77
2021/06/10 03:25:35;;;;;;;;;;;;;;;13.20;94.92;101976.66;5044224;28;20336;-81
2021/06/10 03:28:02;;;;;;;;;;;;;;;13.14;95.18;101977.16;5053076;28;19917;-78
2021/06/10 03:30:28;;;;;;;;;;;;;;;13.12;95.21;101980.91;5048217;28;19913;-79
2021/06/10 03:32:54;;;;;;;;;;;;;;;13.11;94.94;101977.44;5050929;28;19920;-79
2021/06/10 03:35:21;;;;;;;;;;;;;;;13.13;94.89;101974.66;5032891;28;19924;-80
2021/06/10 03:37:46;;;;;;;;;;;;;;;13.16;94.96;101977.03;5047191;28;19916;-79
2021/06/10 03:40:12;;;;;;;;;;;;;;;13.21;94.61;101972.22;5046541;28;20050;-79
2021/06/10 03:42:39;;;;;;;;;;;;;;;13.22;93.74;101977.34;5040157;28;19923;-79
2021/06/10 03:45:05;;;;;;;;;;;;;;;13.22;93.86;101985.25;5036301;28;19921;-79
2021/06/10 03:47:31;;;;;;;;;;;;;;;13.30;93.82;101983.72;5045514;28;20339;-81
2021/06/10 03:49:56;;;;;;;;;;;;;;;13.36;93.30;101981.44;5031512;28;19917;-81
2021/06/10 03:52:26;;;;;;;;;;;;;;;13.42;92.79;101986.16;5037076;28;19916;-80
2021/06/10 03:54:51;;;;;;;;;;;;;;;13.50;92.80;101984.66;5051158;28;20015;-80
2021/06/10 03:57:17;;;;;;;;;;;;;;;13.54;92.21;101981.63;5051805;28;20000;-79
2021/06/10 03:59:42;;;;;;;;;;;;;;;13.61;91.73;101979.28;5049754;28;19913;-79
2021/06/10 04:02:08;;;;;;;;;;;;;;;13.66;91.65;101976.25;5049879;28;20331;-79
2021/06/10 04:04:33;;;;;;;;;;;;;;;13.71;91.96;101974.88;5052178;28;20588;-80
2021/06/10 04:06:58;;;;;;;;;;;;;;;13.75;92.08;101972.75;5019543;28;20018;-80
2021/06/10 04:09:24;;;;;;;;;;;;;;;13.81;92.31;101970.41;5026817;28;20636;-79
2021/06/10 04:11:50;;;;;;;;;;;;;;;13.90;91.49;101974.03;5036688;28;20014;-79
2021/06/10 04:14:15;;;;;;;;;;;;;;;13.99;91.26;101975.00;5036116;28;20310;-80
2021/06/10 04:16:41;;;;;;;;;;;;;;;14.03;91.00;101981.66;5036504;28;20665;-80
2021/06/10 04:19:06;;;;;;;;;;;;;;;14.09;90.82;101983.75;5052970;28;19913;-81
2021/06/10 04:21:31;;;;;;;;;;;;;;;14.15;90.69;101980.56;5018819;28;20302;-80
2021/06/10 04:23:57;;;;;;;;;;;;;;;14.19;90.24;101981.94;5048251;28;19924;-80
2021/06/10 04:26:22;;;;;;;;;;;;;;;14.27;90.03;101991.78;5032893;28;19913;-80
2021/06/10 04:28:48;;;;;;;;;;;;;;;14.36;89.61;101985.66;5034212;28;20280;-80
2021/06/10 04:31:14;;;;;;;;;;;;;;;14.44;89.86;101992.88;5015647;28;19924;-81
2021/06/10 04:33:40;;;;;;;;;;;;;;;14.45;90.53;101984.00;5000391;28;19960;-80
2021/06/10 04:36:05;;;;;;;;;;;;;;;14.49;90.13;101989.84;5032224;28;19963;-78
2021/06/10 04:38:31;;;;;;;;;;;;;;;14.54;89.52;101987.56;5050134;28;19912;-79
2021/06/10 04:40:57;;;;;;;;;;;;;;;14.61;89.31;101980.78;5038108;28;19979;-79
2021/06/10 04:43:22;;;;;;;;;;;;;;;14.71;90.13;101989.53;5016484;28;19912;-80
2021/06/10 04:45:48;;;;;;;;;;;;;;;14.78;90.90;101992.41;5042201;28;19916;-80
2021/06/10 04:48:13;;;;;;;;;;;;;;;14.79;91.88;101987.00;5052463;28;19916;-80
2021/06/10 04:50:38;;;;;;;;;;;;;;;14.83;91.79;101998.13;5035601;28;19919;-81
2021/06/10 04:53:05;;;;;;;;;;;;;;;14.88;91.68;101989.75;5052083;28;20011;-80
2021/06/10 04:55:30;;;;;;;;;;;;;;;14.96;91.84;102000.44;5017221;28;19913;-81
2021/06/10 04:57:56;;;;;;;;;;;;;;;15.04;91.52;102002.34;5040340;28;19962;-80
2021/06/10 05:00:22;;;;;;;;;;;;;;;15.10;91.52;102007.88;5042917;28;19912;-80
2021/06/10 05:02:48;;;;;;;;;;;;;;;15.17;92.31;102001.03;5044477;28;19993;-81
2021/06/10 05:05:13;;;;;;;;;;;;;;;15.25;91.99;101995.03;5051856;28;19982;-80
2021/06/10 05:07:38;;;;;;;;;;;;;;;15.35;90.82;102003.75;5043770;28;19912;-79
2021/06/10 05:10:04;;;;;;;;;;;;;;;15.46;89.74;101996.59;5050088;28;20435;-79
2021/06/10 05:12:31;;;;;;;;;;;;;;;15.56;89.41;102000.00;5053572;28;20619;-79
2021/06/10 05:14:56;;;;;;;;;;;;;;;15.73;91.29;101995.72;5035363;28;19924;-81
2021/06/10 05:17:22;;;;;;;;;;;;;;;15.87;89.40;101989.94;5035692;28;19920;-81
2021/06/10 05:19:47;;;;;;;;;;;;;;;16.04;86.76;101992.72;5051554;28;19978;-81
2021/06/10 05:22:13;;;;;;;;;;;;;;;16.19;87.96;101995.69;5049646;28;20313;-81
2021/06/10 05:24:40;;;;;;;;;;;;;;;16.30;84.35;101998.91;5043539;28;19920;-79
2021/06/10 05:27:08;;;;;;;;;;;;;;;16.43;79.71;102000.34;5053712;28;19913;-76
2021/06/10 05:29:34;;;;;;;;;;;;;;;16.54;77.02;101995.59;5051186;28;19955;-80
2021/06/10 05:31:59;;;;;;;;;;;;;;;16.71;75.89;101998.38;5053541;28;19960;-79
2021/06/10 05:34:25;;;;;;;;;;;;;;;16.80;73.57;101991.28;5050750;28;20450;-79
2021/06/10 05:36:50;;;;;;;;;;;;;;;16.86;75.18;101996.00;5031574;28;19913;-80
2021/06/10 05:39:15;;;;;;;;;;;;;;;16.95;75.94;101996.88;5043484;28;19912;-78
2021/06/10 05:41:41;;;;;;;;;;;;;;;16.97;73.86;101992.22;5046523;28;19913;-80
2021/06/10 05:44:06;;;;;;;;;;;;;;;17.05;71.39;101998.41;5044078;28;19959;-77
2021/06/10 05:46:32;;;;;;;;;;;;;;;17.16;70.01;101999.97;5013228;28;20388;-81
2021/06/10 05:48:57;;;;;;;;;;;;;;;17.21;73.36;102004.78;5031987;28;19913;-78
2021/06/10 05:51:22;;;;;;;;;;;;;;;17.30;73.63;101999.34;5026549;28;20015;-79
2021/06/10 05:53:49;;;;;;;;;;;;;;;17.35;73.64;101990.91;5025086;28;19967;-79
2021/06/10 05:56:14;;;;;;;;;;;;;;;17.49;73.09;102000.88;5028955;28;20349;-78
2021/06/10 05:58:40;;;;;;;;;;;;;;;17.62;69.46;102000.44;5030814;28;19920;-78
2021/06/10 06:01:05;;;;;;;;;;;;;;;17.66;69.80;101995.63;5038725;28;19996;-79
2021/06/10 06:03:31;;;;;;;;;;;;;;;17.68;69.43;101989.16;5033655;28;20336;-77
2021/06/10 06:05:57;;;;;;;;;;;;;;;17.83;68.06;101988.53;5051409;28;20381;-78
2021/06/10 06:08:23;;;;;;;;;;;;;;;17.93;67.67;101994.53;5042584;28;20091;-79
2021/06/10 06:10:51;;;;;;;;;;;;;;;18.02;67.85;101987.41;5017306;28;19919;-78
2021/06/10 06:13:20;;;;;;;;;;;;;;;18.13;66.81;101991.56;5017592;28;19916;-77
2021/06/10 06:15:46;;;;;;;;;;;;;;;18.26;66.01;101990.06;5034251;28;19920;-79
2021/06/10 06:18:11;;;;;;;;;;;;;;;18.35;68.79;101992.72;5033762;28;20392;-79
2021/06/10 06:20:37;;;;;;;;;;;;;;;18.41;65.87;101992.06;5029383;28;19913;-81
2021/06/10 06:23:02;;;;;;;;;;;;;;;18.49;65.36;101990.19;5014553;28;19967;-82
2021/06/10 06:25:28;;;;;;;;;;;;;;;18.59;67.46;101997.16;5033833;28;19967;-78
2021/06/10 06:27:53;;;;;;;;;;;;;;;18.72;67.65;101996.63;5017669;28;20009;-80
2021/06/10 06:30:19;;;;;;;;;;;;;;;18.90;67.09;102007.91;5043547;28;19913;-79
2021/06/10 06:32:45;;;;;;;;;;;;;;;18.99;64.75;102012.22;5043803;28;19964;-79
2021/06/10 06:35:10;;;;;;;;;;;;;;;19.15;65.15;102002.50;5030360;28;19919;-80
2021/06/10 06:37:36;;;;;;;;;;;;;;;19.22;63.46;102008.81;5035700;28;19940;-80
2021/06/10 06:40:03;;;;;;;;;;;;;;;19.24;62.08;102015.59;5043636;28;20271;-78
2021/06/10 06:42:29;;;;;;;;;;;;;;;19.30;59.80;102016.75;5022665;28;19933;-80
2021/06/10 06:44:54;;;;;;;;;;;;;;;19.44;61.88;102015.19;5049241;28;19913;-80
2021/06/10 06:47:19;;;;;;;;;;;;;;;19.45;61.41;102016.84;5024119;28;19948;-80
2021/06/10 06:49:45;;;;;;;;;;;;;;;19.54;62.26;102017.63;5032372;28;19912;-80
2021/06/10 06:52:10;;;;;;;;;;;;;;;19.69;60.05;102020.38;5047683;28;20095;-80
2021/06/10 06:54:36;;;;;;;;;;;;;;;19.82;65.57;102023.31;5042376;28;19920;-79
2021/06/10 06:57:03;;;;;;;;;;;;;;;19.94;63.49;102021.06;5041445;28;19913;-79
2021/06/10 06:59:29;;;;;;;;;;;;;;;20.22;58.97;102022.16;5017181;28;19971;-78
2021/06/10 07:01:54;;;;;;;;;;;;;;;20.47;61.47;102024.63;5043989;28;19960;-80
2021/06/10 07:04:20;;;;;;;;;;;;;;;20.77;59.00;102024.69;5045633;28;19967;-77
2021/06/10 07:06:47;;;;;;;;;;;;;;;20.96;58.97;102024.16;5033208;28;20016;-80
2021/06/10 07:09:13;;;;;;;;;;;;;;;21.02;55.19;102019.94;5036606;28;19979;-78
2021/06/10 07:11:38;;;;;;;;;;;;;;;21.09;62.54;102028.81;5011303;28;20391;-79
2021/06/10 07:14:04;;;;;;;;;;;;;;;20.99;58.28;102028.28;5035639;28;19928;-79
2021/06/10 07:16:30;;;;;;;;;;;;;;;21.04;52.44;102033.06;5028110;28;19913;-79
2021/06/10 07:18:55;;;;;;;;;;;;;;;21.30;54.13;102044.06;5028519;28;20437;-80
2021/06/10 07:21:21;;;;;;;;;;;;;;;21.25;49.21;102038.50;5027716;28;20011;-78
2021/06/10 07:23:47;;;;;;;;;;;;;;;21.43;51.13;102043.41;5028829;28;19913;-79
2021/06/10 07:26:12;;;;;;;;;;;;;;;21.55;54.46;102047.28;5026672;28;19920;-78
2021/06/10 07:28:38;;;;;;;;;;;;;;;21.62;51.11;102049.22;5028294;28;19921;-79
2021/06/10 07:31:03;;;;;;;;;;;;;;;21.81;51.63;102045.09;5034829;28;20023;-79
2021/06/10 07:33:28;;;;;;;;;;;;;;;21.83;49.61;102048.41;5031097;28;19956;-79
2021/06/10 07:35:54;;;;;;;;;;;;;;;21.84;51.27;102050.88;5032356;28;19948;-79
2021/06/10 07:38:19;;;;;;;;;;;;;;;21.78;51.61;102049.00;5037019;28;20276;-79
2021/06/10 07:40:45;;;;;;;;;;;;;;;21.95;50.58;102055.72;5046243;28;20325;-80
2021/06/10 07:43:10;;;;;;;;;;;;;;;22.08;51.26;102046.22;5040048;28;19921;-80
2021/06/10 07:45:36;;;;;;;;;;;;;;;22.15;52.00;102053.25;5047919;28;19912;-78
2021/06/10 07:48:02;;;;;;;;;;;;;;;22.33;51.90;102057.34;5047978;28;19937;-78
2021/06/10 07:50:28;;;;;;;;;;;;;;;22.08;49.44;102055.03;5045782;28;19912;-78
2021/06/10 07:52:53;;;;;;;;;;;;;;;22.17;50.95;102061.09;5047582;28;20334;-80
2021/06/10 07:55:20;;;;;;;;;;;;;;;22.19;51.69;102056.38;5047248;28;19969;-79
2021/06/10 07:57:45;;;;;;;;;;;;;;;22.42;54.72;102055.38;5048872;28;19985;-78
2021/06/10 08:00:11;;;;;;;;;;;;;;;22.63;47.39;102049.97;5051327;28;20363;-79
2021/06/10 08:02:41;;;;;;;;;;;;;;;22.84;48.69;102058.94;5048128;28;19920;-79
2021/06/10 08:05:07;;;;;;;;;;;;;;;22.91;49.24;102063.31;5042690;28;19920;-76
2021/06/10 08:07:33;;;;;;;;;;;;;;;22.98;54.42;102059.84;5047240;28;19912;-79
2021/06/10 08:09:59;;;;;;;;;;;;;;;23.09;46.99;102059.31;5031316;28;19984;-80
2021/06/10 08:12:24;;;;;;;;;;;;;;;23.07;48.06;102058.69;5031802;28;19933;-79
2021/06/10 08:14:50;;;;;;;;;;;;;;;23.16;49.26;102065.53;5031094;28;19921;-79
2021/06/10 08:17:16;;;;;;;;;;;;;;;23.16;48.86;102060.19;5033957;28;19913;-78
2021/06/10 08:19:42;;;;;;;;;;;;;;;23.38;48.74;102065.44;5042420;28;19924;-80
2021/06/10 08:22:07;;;;;;;;;;;;;;;23.50;48.62;102070.00;5050487;28;19916;-78
2021/06/10 08:24:33;;;;;;;;;;;;;;;23.65;46.78;102067.16;5051043;28;20009;-80
2021/06/10 08:26:58;;;;;;;;;;;;;;;23.71;44.61;102070.91;5043313;28;19916;-79
2021/06/10 08:29:27;;;;;;;;;;;;;;;23.46;47.16;102066.09;5049843;28;19921;-81
2021/06/10 08:31:54;;;;;;;;;;;;;;;23.46;49.24;102071.44;5043857;28;20000;-79
2021/06/10 08:34:19;;;;;;;;;;;;;;;23.70;50.61;102070.09;5039574;28;19975;-80
2021/06/10 08:36:45;;;;;;;;;;;;;;;23.68;47.62;102066.78;5039743;28;20525;-78
2021/06/10 08:39:10;;;;;;;;;;;;;;;23.67;45.03;102069.66;5045673;28;20000;-78
2021/06/10 08:41:36;;;;;;;;;;;;;;;23.88;50.51;102074.06;5051331;28;19967;-81
2021/06/10 08:44:02;;;;;;;;;;;;;;;24.13;44.33;102068.97;5051162;28;19970;-80
2021/06/10 08:46:30;;;;;;;;;;;;;;;24.24;44.47;102064.84;5041759;28;20008;-78
2021/06/10 08:48:56;;;;;;;;;;;;;;;24.41;50.97;102071.47;5043400;28;19916;-79
2021/06/10 08:51:21;;;;;;;;;;;;;;;24.53;53.43;102068.19;5050919;28;20367;-80
2021/06/10 08:53:46;;;;;;;;;;;;;;;24.31;46.13;102071.03;5044998;28;20301;-79
2021/06/10 08:56:12;;;;;;;;;;;;;;;24.53;46.13;102062.81;5039634;28;19909;-80
2021/06/10 08:58:38;;;;;;;;;;;;;;;24.60;42.64;102053.72;5030331;28;19916;-80
2021/06/10 09:01:05;;;;;;;;;;;;;;;24.66;44.26;102057.44;5013063;28;20017;-80
2021/06/10 09:03:34;;;;;;;;;;;;;;;24.77;46.16;102064.84;5038324;28;19908;-80
2021/06/10 09:06:03;;;;;;;;;;;;;;;24.76;44.49;102065.88;5040633;28;19943;-78
2021/06/10 09:08:28;;;;;;;;;;;;;;;24.69;53.39;102067.72;5013146;28;20571;-79
2021/06/10 09:11:04;;;;;;;;;;;;;;;24.62;43.33;102061.53;5029794;28;19967;-81
2021/06/10 09:13:36;;;;;;;;;;;;;;;24.75;43.56;102058.88;5030936;28;19928;-80
2021/06/10 09:16:22;;;;;;;;;;;;;;;24.72;43.42;102064.63;5030946;28;19917;-78
2021/06/10 09:18:49;;;;;;;;;;;;;;;24.82;44.18;102062.34;5012854;28;20007;-79
2021/06/10 09:21:24;;;;;;;;;;;;;;;24.83;41.90;102050.59;5028578;28;20414;-79
2021/06/10 09:23:50;;;;;;;;;;;;;;;25.23;45.19;102053.16;5029643;28;20411;-79
2021/06/10 09:26:16;;;;;;;;;;;;;;;25.61;44.39;102056.91;5032023;28;19952;-78
2021/06/10 09:28:43;;;;;;;;;;;;;;;25.64;41.36;102056.50;5042477;28;19916;-79
2021/06/10 09:31:09;;;;;;;;;;;;;;;25.47;41.16;102055.34;5040369;28;19920;-80
2021/06/10 09:33:42;;;;;;;;;;;;;;;25.12;42.99;102045.75;5044378;28;19925;-79
2021/06/10 09:36:07;;;;;;;;;;;;;;;25.26;44.48;102046.56;5047426;28;20002;-79
2021/06/10 09:38:33;;;;;;;;;;;;;;;25.63;48.82;102058.34;5039053;28;19975;-79
2021/06/10 09:41:03;;;;;;;;;;;;;;;25.64;42.71;102051.94;5042208;28;19913;-78
2021/06/10 09:43:44;;;;;;;;;;;;;;;25.50;42.76;102055.72;5050082;28;19923;-81
2021/06/10 09:46:10;;;;;;;;;;;;;;;25.68;44.15;102055.03;5049765;28;20371;-79
2021/06/10 09:48:35;;;;;;;;;;;;;;;25.64;43.70;102053.81;5048775;28;19913;-79
2021/06/10 09:51:01;;;;;;;;;;;;;;;25.24;41.98;102048.63;5048700;28;19965;-79
2021/06/10 09:53:29;;;;;;;;;;;;;;;25.21;43.62;102044.47;5049637;28;19928;-81
2021/06/10 09:55:56;;;;;;;;;;;;;;;25.35;45.90;102049.81;5044779;28;19924;-80
2021/06/10 09:58:34;;;;;;;;;;;;;;;25.58;49.06;102049.28;5015852;28;19912;-82
2021/06/10 10:01:04;;;;;;;;;;;;;;;25.45;42.76;102042.13;5031486;28;19912;-82
2021/06/10 10:03:30;;;;;;;;;;;;;;;25.35;46.69;102044.44;5022128;28;19945;-83
2021/06/10 10:06:00;;;;;;;;;;;;;;;25.36;42.71;102046.09;5033162;28;20574;-81
2021/06/10 10:08:28;;;;;;;;;;;;;;;25.39;44.38;102049.19;5042856;28;20294;-80
2021/06/10 10:10:54;;;;;;;;;;;;;;;25.56;42.67;102048.69;5034173;28;19999;-82
2021/06/10 10:13:21;;;;;;;;;;;;;;;25.62;45.64;102050.53;5052159;28;19917;-83
2021/06/10 10:15:46;;;;;;;;;;;;;;;25.66;43.91;102054.41;5044001;28;19931;-82
2021/06/10 10:18:12;;;;;;;;;;;;;;;25.77;43.40;102055.59;5049603;28;19942;-83
2021/06/10 10:20:38;;;;;;;;;;;;;;;25.95;42.13;102039.56;5049099;28;19913;-82
2021/06/10 10:23:06;;;;;;;;;;;;;;;25.88;44.56;102046.84;5035473;28;19931;-81
2021/06/10 10:25:32;;;;;;;;;;;;;;;25.95;44.89;102044.94;5052275;28;19912;-82
2021/06/10 10:28:01;;;;;;;;;;;;;;;26.07;45.06;102038.88;5052509;28;20035;-82
2021/06/10 10:30:27;;;;;;;;;;;;;;;26.29;43.88;102042.00;5041048;28;19976;-81
2021/06/10 10:32:52;;;;;;;;;;;;;;;26.37;44.20;102039.03;5048179;28;20359;-81
2021/06/10 10:35:24;;;;;;;;;;;;;;;26.18;45.13;102041.69;5038252;28;19920;-81
2021/06/10 10:37:51;;;;;;;;;;;;;;;26.02;42.79;102036.84;5032476;28;20020;-83
2021/06/10 10:40:20;;;;;;;;;;;;;;;25.94;43.35;102029.88;5040231;28;19916;-81
2021/06/10 10:42:45;;;;;;;;;;;;;;;25.89;45.75;102031.53;5051158;28;19913;-80
2021/06/10 10:45:16;;;;;;;;;;;;;;;26.01;46.44;102033.34;5046867;28;19957;-84
2021/06/10 10:47:41;;;;;;;;;;;;;;;26.02;44.53;102028.78;5043092;28;19952;-82
2021/06/10 10:50:07;;;;;;;;;;;;;;;25.94;45.18;102031.75;5042954;28;19959;-81
2021/06/10 10:52:38;;;;;;;;;;;;;;;25.99;43.53;102029.22;5041931;28;20008;-82
2021/06/10 10:55:14;;;;;;;;;;;;;;;26.17;45.15;102033.84;5014907;28;20622;-82
2021/06/10 10:57:41;;;;;;;;;;;;;;;26.51;47.78;102031.69;5044383;28;19948;-82
2021/06/10 11:00:08;;;;;;;;;;;;;;;26.19;44.32;102032.56;5048795;28;19913;-82
2021/06/10 11:02:37;;;;;;;;;;;;;;;26.03;41.98;102025.03;5051006;28;19962;-82
2021/06/10 11:05:09;;;;;;;;;;;;;;;26.05;42.11;102022.97;5038254;28;19959;-80
2021/06/10 11:07:40;;;;;;;;;;;;;;;26.37;43.32;102023.72;5047509;28;19928;-81
2021/06/10 11:10:06;;;;;;;;;;;;;;;26.58;41.51;102021.69;5038963;28;19912;-80
2021/06/10 11:12:40;;;;;;;;;;;;;;;26.56;41.82;102016.50;5034028;28;19924;-81
2021/06/10 11:15:07;;;;;;;;;;;;;;;26.55;41.79;102020.22;5037288;28;19964;-79
2021/06/10 11:17:45;;;;;;;;;;;;;;;26.85;41.69;102022.22;5023964;28;19923;-82
2021/06/10 11:20:14;;;;;;;;;;;;;;;27.02;41.58;102021.63;5038242;28;19952;-81
2021/06/10 11:22:49;;;;;;;;;;;;;;;27.08;40.83;102026.09;5038738;28;20281;-83
2021/06/10 11:25:23;;;;;;;;;;;;;;;27.03;40.98;102017.88;5041949;28;19939;-78
2021/06/10 11:27:51;;;;;;;;;;;;;;;27.38;45.71;102018.09;5037857;28;19916;-81
2021/06/10 11:30:17;;;;;;;;;;;;;;;27.07;43.57;102017.22;5048014;28;19920;-80
2021/06/10 11:33:02;;;;;;;;;;;;;;;27.24;40.16;102021.97;5037489;28;20358;-79
2021/06/10 11:35:32;;;;;;;;;;;;;;;27.27;41.05;102011.59;5033150;28;19968;-79
2021/06/10 11:37:59;;;;;;;;;;;;;;;27.41;40.29;102016.78;5039662;28;19916;-80
2021/06/10 11:40:24;;;;;;;;;;;;;;;27.54;38.12;102017.44;5063287;28;19923;-80
2021/06/10 11:42:50;;;;;;;;;;;;;;;27.55;36.68;102016.38;5074705;28;19913;-80
2021/06/10 11:45:20;;;;;;;;;;;;;;;27.46;37.34;102012.38;5071425;28;20003;-80
2021/06/10 11:47:46;;;;;;;;;;;;;;;27.70;39.44;102012.44;5051247;28;19916;-80
2021/06/10 11:50:26;;;;;;;;;;;;;;;27.79;39.31;102012.94;5032279;28;19913;-79
2021/06/10 11:52:53;;;;;;;;;;;;;;;28.08;40.87;102012.06;5052607;28;19917;-80
2021/06/10 11:55:19;;;;;;;;;;;;;;;27.97;39.03;102015.56;5053017;28;19952;-79
2021/06/10 11:57:51;;;;;;;;;;;;;;;28.15;37.16;102003.88;5053340;28;19921;-81
2021/06/10 12:00:23;;;;;;;;;;;;;;;27.90;37.54;101999.50;5053079;28;20386;-79
2021/06/10 12:02:53;;;;;;;;;;;;;;;27.92;35.82;102002.78;5053049;28;19917;-79
2021/06/10 12:05:20;;;;;;;;;;;;;;;28.09;38.36;102008.31;5053684;28;19924;-80
2021/06/10 12:07:47;;;;;;;;;;;;;;;28.13;41.33;101997.88;5027967;28;20684;-80
2021/06/10 12:10:20;;;;;;;;;;;;;;;28.26;38.89;101997.66;5033867;28;19919;-81
2021/06/10 12:12:52;;;;;;;;;;;;;;;27.94;38.30;101991.78;5057278;28;19912;-80
2021/06/10 12:15:17;;;;;;;;;;;;;;;27.87;37.98;101993.72;5056840;28;20452;-80
2021/06/10 12:17:49;;;;;;;;;;;;;;;27.91;38.92;101984.97;5057063;28;19912;-79
2021/06/10 12:20:16;;;;;;;;;;;;;;;28.17;42.87;101985.56;5050838;28;19920;-77
2021/06/10 12:22:46;;;;;;;;;;;;;;;28.00;37.37;101990.03;5041726;28;19923;-80
2021/06/10 12:25:18;;;;;;;;;;;;;;;28.06;38.52;101984.50;5051377;28;19916;-79
2021/06/10 12:27:44;;;;;;;;;;;;;;;28.19;37.88;101979.94;5053466;28;19924;-78
2021/06/10 12:30:22;;;;;;;;;;;;;;;27.91;41.30;101993.06;5052142;28;19909;-78
2021/06/10 12:32:48;;;;;;;;;;;;;;;27.91;40.54;101976.88;5045110;28;19912;-79
2021/06/10 12:35:17;;;;;;;;;;;;;;;27.88;41.14;101981.91;5034190;28;19921;-79